This site, now in its 15th season, is a labour of love and fun from one of Ottawa's most avid time trialists and number crunchers. It adheres to and is permitted by the laws of Canada, promotes the objectives of every bicycle club whose results are shown, and is donated free of charge by myself for your enjoyment and usage. If you would like results from series you ride in to be shown here, give me (celia@drmath.ca) a shout!


Index Page
ATT OTT WTT AATT CFCTT VVVTT
Help resultformat:
Case-sensitive

OBC Open TT Series - 2010-May-13 - 15km (Rockliffe Pkwy) (EvtFactor = 0.8807)

Weather (18:00): Cloudy. Temp.: 16C, Humidity: 29%, Dew Point: -2C, Wind: S 4km/h, Pressure: 102.3kPa, Visibility: 24km.
Weather (19:00): Cloudy. Temp.: 15C, Humidity: 36%, Dew Point: 0C, Wind: SSE 9km/h, Pressure: 102.2kPa, Visibility: 24km.
Weather (20:00): Cloudy. Temp.: 13C, Humidity: 41%, Dew Point: 0C, Wind: SE 5km/h, Pressure: 102.0kPa, Visibility: 24km.

Send photos with description (when/where/what) of yourself on or off of bike to celia@drmath.ca

Now that we've had three OTT events in 2010, you may look at the EvtFactor measure of the goodness of each night. Tonight ranked the highest of the three races thus far in 2010. You may see the times of those of us who rode all three 2010 time trials thus far by clicking here. Of these 18 people, 7 improved each time out. Anyway, though I'd tend to agree with the accountant (Paul Datars) who predicted that the night would be slow because of the high air pressure, improved fitness resulted in season best times, thus far, for 45 of the 63 riders who had already ridden a 2010 OTT. Twenty-four people improved upon their previous database best, and the fastest woman, Sue Schlatter, tied her impressive database best of 20:13 for the third time! Comparing tonight's performances with the previous database category bests, we see that nobody exceeded the previous database best for their category, though Sue's mark tied the VBF record which she has reset a number of times. It is fun to look at tonight's results with the age/gender handicaps which are generated from the British VTTA standard times. Here they are.

These results were first posted on the OBC site circa 23:55 on 2010-May-13 and are available here for your added pleasure and analysis.

(Note that I'd gladly type in the results each time, getting the results up within a few of hours of the event, as I did for the WTT series for the decade beginning in 1998, and for the OTT series from 1999-2002 and again in 2006. Regardless, I will continue to donate this statistical time trial result service to you, even though doing so has, surprisingly, resulted in my EXPULSION from the OBC ! I guess I must at least thank the OBC executive for taking on the grunt work and leaving me to do just the more interesting side of my result service, but I do want to make it absolutely clear that I would gladly help the OBC Board input the results, lest complaints about me just lazily sucking in the results surface! The choice is theirs. If they want the help, I'm here and will do it - even if I remain expelled! Such is my level of dedication to public service and disinterest in private politics.)

 
 

BESTS?
 
1 MacDonald, Warren  OBC 19:26 46.312 1/99 VAM 1/22 0.9745
2 Amos, Ron  OBC/RWR 19:51 45.340 2/99 VBM 1/17 1.0050
3 Rendall, Glen  RWR 19:54 45.226 3/99 VBM 2/17  
4 van den Ham, Douglas  OBC 19:58 45.075 4/99 VAM 2/22 0.9508
5 Parniak, Robert  --- 20:09 44.665 5/99 VAM 3/22  
6 Gee, Jon OBC 20:10 44.628 6/99 VBM 3/17 1.0351
7 Roth, Casey  --- 20:11 44.591 7/99 SEM 1/7  
Y 8 Dal-Cin, Matteo & DeLuco, Matt OBC 20:13 44.518 8/99 TTT 1/1  
Schlatter, Sue  --- 20:13 44.518 8/99 VBF 1/6  
10 Munden, David --- 20:14 44.481 10/99 VAM 4/22  
11 Datars, Paul  OBC/RWR 20:30 43.902 11/99 VCM 1/19  
12 Sudac, Rick  OBC/RWR 20:36 43.689 12/99 VDM 1/6  
13 Proulx, Steve  OBC 20:40 43.548 13/99 VBM 4/17 1.0392
Stachon, David --- 20:40 43.548 13/99 VAM 5/22 1.0417
15 Diaz, Rodrigo  OBC/EUR 20:41 43.513 15/99 VAM 6/22  
Tsilemos, Jim --- 20:41 43.513 15/99 VBM 5/17 1.0194
17 Hanrahan, Mason EUR 21:17 42.287 17/99 SEM 2/7 1.0142
18 King, Jason RWR 21:26 41.991 18/99 VBM 6/17  
19 Campbell, Colin  OBC 21:29 41.893 19/99 VCM 2/19 1.0788
20 Orange, Kiernan RWR 21:30 41.860 20/99 JUM 1/3 1.1108
21 Mullington, Chris OBC 21:35 41.699 21/99 VCM 3/19  
22 Tregunno, Peter  OBC 21:36 41.667 22/99 VAM 7/22 1.0711
23 Sugden, David RDO 21:39 41.570 23/99 VBM 7/17 0.8974
24 Matte, Sophie  SRC 21:40 41.538 24/99 VAF 1/6 1.0708
25 Cameron, Allen  OBC/RWR 21:44 41.411 25/99 VCM 4/19  
Farish, Neil  OBC/RWR 21:44 41.411 25/99 VCM 4/19 1.0634
27 Gerrard, David  OBC 21:45 41.379 27/99 VBM 8/17 0.9636
28 Lapointe, Marc OBC 21:53 41.127 28/99 VAM 8/22 0.9243
29 Spooner, Tricia  SRC 21:55 41.065 29/99 VBF 2/6 1.2120
30 Voyer, Christian OBC 21:56 41.033 30/99 VAM 9/22 0.9977
31 DeVidi, Robert  OBC 21:59 40.940 31/99 VBM 9/17 1.0392
Trafford, Brian OBC 21:59 40.940 31/99 JUM 2/3 1.0794
33 Campbell, Greg OBC 22:02 40.847 33/99 VAM 10/22 0.9708
34 Budgell, Glen  OBC 22:05 40.755 34/99 VCM 6/19 1.0507
35 Diotte, Daniel OBC 22:17 40.389 35/99 VBM 10/17 1.0830
36 Kruger, Andrew  CYC 22:18 40.359 36/99 VAM 11/22  
37 Gagnon, Alexandre  OBC 22:19 40.329 37/99 SEM 3/7 0.9867
38 Michel, Alexandre  WQW 22:24 40.179 38/99 VAM 12/22 0.9239
39 Sargent, Larry OBC 22:27 40.089 39/99 VCM 7/19 1.1839
40 Corner, Doug  OBC 22:32 39.941 40/99 VCM 8/19 1.0134
41 Coney, Sarah OBC 22:33 39.911 41/99 SEF 1/2  
42 Posthuma, Hans  OBC 22:34 39.882 42/99 VCM 9/19 1.0542
43 Brunet, Chris CYC 22:37 39.794 43/99 SEM 4/7  
44 Aspenlieder, Iain OBC 22:45 39.560 44/99 VAM 13/22 1.0789
45 Charron, Martin --- 22:49 39.445 45/99 VAM 14/22  
46 Kerckhoff, Hermann  RWR 22:53 39.330 46/99 VEM 1/1 0.9978
47 Forcese, Craig OBC 22:54 39.301 47/99 VBM 11/17 1.1179
48 Moerman, Bram  OBC 23:08 38.905 48/99 VDM 2/6 1.0284
49 Schuck, Peter  OBC 23:09 38.877 49/99 VCM 10/19  
50 Martinez-Arroyu, Cid OBC 23:11 38.821 50/99 VAM 15/22 1.1003
51 Gagnon, Jules OBC 23:23 38.489 51/99 VCM 11/19 1.1085
52 Nelson, Kevin OBC 23:27 38.380 52/99 VBM 12/17  
53 Dorego, Jean-Louis OBC 23:28 38.352 53/99 VCM 12/19 1.0675
54 Leboeuf, Maxime OBC 23:39 38.055 54/99 CAM 1/4 1.0626
55 Marleau, Dianne  OBC/RWR 23:44 37.921 55/99 VBF 3/6 1.1158
56 Tongoc, Serge OBC 23:45 37.895 56/99 VBM 13/17  
57 Boulanger, Gaetan  OBC 23:49 37.789 57/99 VDM 3/6  
58 Blais, Bob OBC 23:51 37.736 58/99 VCM 13/19  
59 Schattmann, Peter OBC 23:57 37.578 59/99 VCM 14/19 0.9347
60 Burge, Larry  OBC 23:58 37.552 60/99 VBM 14/17 0.9959
61 Henry, Mike OBC 24:09 37.267 61/99 VAM 16/22 1.1116
62 Monast-Dore, Maxime OBC 24:14 37.139 62/99 CAM 2/4 1.0696
63 Wilkins, Carl  OBC 24:16 37.088 63/99 VAM 17/22 1.0187
64 De Haitre, Stephen OBC 24:21 36.961 64/99 CAM 3/4 0.9535
65 Reissner, Leslie OBC 24:22 36.936 65/99 VCM 15/19 1.0207
66 Hall, Margot OBC 24:23 36.910 66/99 VAF 2/6 0.9776
67 Maley, Shane OBC 24:26 36.835 67/99 SEM 5/7  
68 Bergeron, Philippe  OBC 24:43 36.413 68/99 JUM 3/3  
69 Imbrogno, Giorgio  OBC 24:58 36.048 69/99 VDM 4/6 1.0488
70 Austen, Ian  OBC 25:01 35.976 70/99 VCM 16/19 1.1269
71 Uknown, Rider OBC 25:07 35.833 71/99 VBM 15/17  
72 Cuellar, Hector OBC 25:12 35.714 72/99 VAM 18/22 1.4721
Hill, Michael OBC 25:12 35.714 72/99 CAM 4/4  
74 Brown, Evan OBC 25:14 35.667 74/99 SEM 6/7  
75 Konantz, Patricia  OBC/RWR 25:15 35.644 75/99 VCF 1/4 1.0689
76 McInnis, Celia  ABC/CYF 25:31 35.271 76/99 VCF 2/4 0.9499
77 Phillips, Ron OBC 25:32 35.248 77/99 VDM 5/6 1.0866
78 Desjardins, Marcel OBC 25:42 35.019 78/99 VDM 6/6  
79 Janusauskas, Vytas  OBC 25:52 34.794 79/99 VCM 17/19 0.9981
80 Déry, Nicolas  OBC 26:00 34.615 80/99 VAM 19/22 1.0232
Ferlatte, Kari  FC 26:00 34.615 80/99 VAF 3/6 1.0809
82 Rees, Stephanie  OBC 26:10 34.395 82/99 VAF 4/6 1.1482
83 Ingham, Alison  OBC 26:20 34.177 83/99 VBF 4/6  
84 Coney, Ingrid  OBC 26:41 33.729 84/99 VCF 3/4  
85 McLaren, Louise  OBC 26:57 33.395 85/99 VBF 5/6 1.0413
86 Crowe, Sean OBC 26:58 33.375 86/99 VBM 16/17 1.2653
87 Wilson, Ali OBC 26:59 33.354 87/99 SEF 2/2 0.9616
88 Bonhomme, Ariane OBC 27:00 33.333 88/99 CAF 1/1 0.8843
89 Liechti, Hans-Peter OBC 27:06 33.210 89/99 VCM 18/19  
90 Schwartz, Kimberley OBC 27:12 33.088 90/99 VAF 5/6  
91 Hsiao, Libby OBC 27:15 33.028 91/99 VAM 20/22 1.0241
92 Maley, Logan OBC 27:21 32.907 92/99 SEM 7/7  
93 Jardine, Karen  OBC 27:43 32.471 93/99 VCF 4/4 1.0720
94 Lamirande, Josée CYC 27:55 32.239 94/99 VBF 6/6 1.0054
95 Dal-Cin, Mauro EUR 28:37 31.450 95/99 VCM 19/19  
96 Bourque, Timothy OBC 28:51 31.196 96/99 VAM 21/22  
97 Johnson, Laura  OBC/CYF 28:54 31.142 97/99 VAF 6/6  
98 LeBrun, Robert OBC 35:08 25.617 98/99 VAM 22/22 1.5952
99 Morris, Steve ULT DNF   99/99 VBM 17/17  
 
Average Speed of all of the above 98 finishes (1470km in 38:33:49):38.119
>>>Average of the Average Speeds for these 98 finishes38.563<<<
 

The number of data records shown above is 99
The server processing of your query took: 1 wallclock secs ( 0.08 usr + 0.01 sys = 0.09 CPU)

Thanks to our Helpers: Leona Gray, Gunter Hauschildt, Alex McKnight, Erika Revesz.

     


Apr 2 (Good Friday)
May 4 (10km) May 6 May 11 (10km)
  May 13  
May 18 May 18 (10km) May 20 May 25 May 25 (10km) May 27 May 30 (40km) May 31 (10km)
Jun 1 Jun 1 Jun 3 Jun 8 Jun 8 Jun 10 Jun 14 (10km) Jun 15 Jun 15 Jun 17 Jun 22 (rained out) Jun 22 Jun 24 Jun 28 (10km) Jun 29 Jun 29
Jul 4 (40km) Jul 6 Jul 6 Jul 8 Jul 12 Jul 13 Jul 13 Jul 15 Jul 20 Jul 20 Jul 22 Jul 26 Jul 27 Jul 27 Jul 29
Aug 3 ((cancelled)) Aug 3 Aug 5 Aug 8 (40km) Aug 10 Aug 10 Aug 12 Aug 15 (40km) Aug 17 Aug 17 Aug 19 Aug 23 Aug 24 Aug 24 Aug 26 Aug 31 Aug 31 (Invitational)
Sep 2 Sep 7 Sep 9 Sep 12 (40km) Sep 14 Sep 19 (40km) Sep 21 Sep 28

OTT Rankings
Best       Best by category
WTT Rankings for All Participants
4 Best Speeds (≥3 15km, ≤1 10km)     4 Best Speeds (≥3 15km, ≤1 10km) by category
OTT Best Three 15km Rankings
Overall     by category     age-Hcap Female   age-Hcap Male
[OWA]TT BAR Ranking
Overall     by category     Rider "Consistency-Graph"
ABC BAR Ranking
Overall     by category     Rider "Consistency-Graph"
Other years
TT Calculator All TT People All TT events
ABC Home VVV Home
CKAP GOLD MEDAL
Other Links

Note: OTT data from 2003 through 2006-Apr-14 and 2007-Apr-06-? and WTT from 2008-? is taken from the official OBC site.

Please send your comments and suggestions to: Celia McInnis
Copyright © 1998-2011 Celia McInnis. All rights reserved. Links are welcomed.